sensor_id;sensor_type;location;lat;lon;timestamp;P1;durP1;ratioP1;P2;durP2;ratioP2
11131;SDS011;5620;53.570;9.718;2022-08-19T00:00:51;8.17;;;4.00;;
11131;SDS011;5620;53.570;9.718;2022-08-19T00:03:17;4.87;;;4.13;;
11131;SDS011;5620;53.570;9.718;2022-08-19T00:05:42;5.07;;;4.60;;
11131;SDS011;5620;53.570;9.718;2022-08-19T00:08:08;5.10;;;3.90;;
11131;SDS011;5620;53.570;9.718;2022-08-19T00:10:33;5.18;;;4.10;;
11131;SDS011;5620;53.570;9.718;2022-08-19T00:12:59;5.20;;;3.83;;
11131;SDS011;5620;53.570;9.718;2022-08-19T00:15:24;5.77;;;3.77;;
11131;SDS011;5620;53.570;9.718;2022-08-19T00:17:50;4.30;;;4.00;;
11131;SDS011;5620;53.570;9.718;2022-08-19T00:20:17;5.47;;;4.90;;
11131;SDS011;5620;53.570;9.718;2022-08-19T00:22:45;9.43;;;4.13;;
11131;SDS011;5620;53.570;9.718;2022-08-19T00:25:11;5.10;;;4.60;;
11131;SDS011;5620;53.570;9.718;2022-08-19T00:27:37;6.05;;;4.57;;
11131;SDS011;5620;53.570;9.718;2022-08-19T00:30:04;7.05;;;4.47;;
11131;SDS011;5620;53.570;9.718;2022-08-19T00:32:30;7.57;;;5.20;;
11131;SDS011;5620;53.570;9.718;2022-08-19T00:34:56;7.93;;;4.97;;
11131;SDS011;5620;53.570;9.718;2022-08-19T00:37:22;6.63;;;4.40;;
11131;SDS011;5620;53.570;9.718;2022-08-19T00:39:50;8.13;;;5.10;;
11131;SDS011;5620;53.570;9.718;2022-08-19T00:42:15;6.05;;;5.47;;
11131;SDS011;5620;53.570;9.718;2022-08-19T00:44:41;7.30;;;5.43;;
11131;SDS011;5620;53.570;9.718;2022-08-19T00:47:06;12.27;;;6.10;;
11131;SDS011;5620;53.570;9.718;2022-08-19T00:49:35;6.50;;;5.90;;
11131;SDS011;5620;53.570;9.718;2022-08-19T00:52:14;6.00;;;5.45;;
11131;SDS011;5620;53.570;9.718;2022-08-19T00:54:44;9.45;;;5.68;;
11131;SDS011;5620;53.570;9.718;2022-08-19T00:57:13;7.35;;;5.47;;
11131;SDS011;5620;53.570;9.718;2022-08-19T00:59:42;7.43;;;6.03;;
11131;SDS011;5620;53.570;9.718;2022-08-19T01:02:09;8.18;;;5.90;;
11131;SDS011;5620;53.570;9.718;2022-08-19T01:04:34;7.43;;;6.73;;
11131;SDS011;5620;53.570;9.718;2022-08-19T01:07:01;7.03;;;6.40;;
11131;SDS011;5620;53.570;9.718;2022-08-19T01:09:27;7.68;;;6.90;;
11131;SDS011;5620;53.570;9.718;2022-08-19T01:11:55;13.70;;;6.30;;
11131;SDS011;5620;53.570;9.718;2022-08-19T01:14:21;7.03;;;5.53;;
11131;SDS011;5620;53.570;9.718;2022-08-19T01:16:47;7.57;;;6.28;;
11131;SDS011;5620;53.570;9.718;2022-08-19T01:19:18;14.30;;;6.22;;
11131;SDS011;5620;53.570;9.718;2022-08-19T01:22:19;8.00;;;5.40;;
11131;SDS011;5620;53.570;9.718;2022-08-19T01:24:49;10.18;;;5.88;;
11131;SDS011;5620;53.570;9.718;2022-08-19T01:27:16;13.25;;;6.03;;
11131;SDS011;5620;53.570;9.718;2022-08-19T01:29:42;8.38;;;6.35;;
11131;SDS011;5620;53.570;9.718;2022-08-19T01:32:10;13.88;;;7.07;;
11131;SDS011;5620;53.570;9.718;2022-08-19T01:34:37;9.03;;;6.30;;
11131;SDS011;5620;53.570;9.718;2022-08-19T01:37:07;10.27;;;6.63;;
11131;SDS011;5620;53.570;9.718;2022-08-19T01:39:35;9.88;;;6.95;;
11131;SDS011;5620;53.570;9.718;2022-08-19T01:42:00;17.10;;;6.50;;
11131;SDS011;5620;53.570;9.718;2022-08-19T01:44:26;11.07;;;6.88;;
11131;SDS011;5620;53.570;9.718;2022-08-19T01:46:51;13.10;;;6.97;;
11131;SDS011;5620;53.570;9.718;2022-08-19T01:49:17;13.73;;;7.93;;
11131;SDS011;5620;53.570;9.718;2022-08-19T01:51:45;18.75;;;7.78;;
11131;SDS011;5620;53.570;9.718;2022-08-19T01:54:11;15.18;;;8.32;;
11131;SDS011;5620;53.570;9.718;2022-08-19T01:56:39;15.00;;;8.57;;
11131;SDS011;5620;53.570;9.718;2022-08-19T01:59:06;19.23;;;8.52;;
11131;SDS011;5620;53.570;9.718;2022-08-19T02:01:44;13.50;;;8.68;;
11131;SDS011;5620;53.570;9.718;2022-08-19T02:04:10;15.80;;;8.40;;
11131;SDS011;5620;53.570;9.718;2022-08-19T02:06:36;13.60;;;8.23;;
11131;SDS011;5620;53.570;9.718;2022-08-19T02:09:02;10.43;;;7.72;;
11131;SDS011;5620;53.570;9.718;2022-08-19T02:11:31;18.73;;;8.93;;
11131;SDS011;5620;53.570;9.718;2022-08-19T02:13:59;10.15;;;8.05;;
11131;SDS011;5620;53.570;9.718;2022-08-19T02:16:27;14.60;;;9.13;;
11131;SDS011;5620;53.570;9.718;2022-08-19T02:18:53;18.60;;;9.93;;
11131;SDS011;5620;53.570;9.718;2022-08-19T02:21:19;13.02;;;9.13;;
11131;SDS011;5620;53.570;9.718;2022-08-19T02:23:46;19.08;;;10.88;;
11131;SDS011;5620;53.570;9.718;2022-08-19T02:26:13;15.52;;;10.80;;
11131;SDS011;5620;53.570;9.718;2022-08-19T02:28:39;16.27;;;11.27;;
11131;SDS011;5620;53.570;9.718;2022-08-19T02:31:13;23.83;;;11.15;;
11131;SDS011;5620;53.570;9.718;2022-08-19T02:33:41;25.58;;;11.30;;
11131;SDS011;5620;53.570;9.718;2022-08-19T02:36:07;24.60;;;11.43;;
11131;SDS011;5620;53.570;9.718;2022-08-19T02:38:33;25.75;;;12.18;;
11131;SDS011;5620;53.570;9.718;2022-08-19T02:41:00;23.17;;;12.48;;
11131;SDS011;5620;53.570;9.718;2022-08-19T02:43:28;22.42;;;13.25;;
11131;SDS011;5620;53.570;9.718;2022-08-19T02:45:55;22.87;;;12.40;;
11131;SDS011;5620;53.570;9.718;2022-08-19T02:48:21;21.30;;;12.73;;
11131;SDS011;5620;53.570;9.718;2022-08-19T02:50:49;22.52;;;13.18;;
11131;SDS011;5620;53.570;9.718;2022-08-19T02:53:16;24.75;;;12.32;;
11131;SDS011;5620;53.570;9.718;2022-08-19T02:55:42;20.27;;;13.87;;
11131;SDS011;5620;53.570;9.718;2022-08-19T02:58:09;18.58;;;11.30;;
11131;SDS011;5620;53.570;9.718;2022-08-19T03:00:35;14.27;;;9.80;;
11131;SDS011;5620;53.570;9.718;2022-08-19T03:03:00;9.95;;;7.97;;
11131;SDS011;5620;53.570;9.718;2022-08-19T03:05:26;13.63;;;6.47;;
11131;SDS011;5620;53.570;9.718;2022-08-19T03:07:52;8.93;;;7.30;;
11131;SDS011;5620;53.570;9.718;2022-08-19T03:10:17;9.05;;;7.43;;
11131;SDS011;5620;53.570;9.718;2022-08-19T03:12:43;11.10;;;6.83;;
11131;SDS011;5620;53.570;9.718;2022-08-19T03:15:08;9.40;;;5.40;;
11131;SDS011;5620;53.570;9.718;2022-08-19T03:17:34;10.50;;;6.90;;
11131;SDS011;5620;53.570;9.718;2022-08-19T03:20:00;7.47;;;6.47;;
11131;SDS011;5620;53.570;9.718;2022-08-19T03:22:26;8.37;;;5.90;;
11131;SDS011;5620;53.570;9.718;2022-08-19T03:24:51;12.83;;;6.83;;
11131;SDS011;5620;53.570;9.718;2022-08-19T03:27:17;14.10;;;7.20;;
11131;SDS011;5620;53.570;9.718;2022-08-19T03:29:42;9.13;;;7.27;;
11131;SDS011;5620;53.570;9.718;2022-08-19T03:32:08;14.27;;;6.45;;
11131;SDS011;5620;53.570;9.718;2022-08-19T03:34:35;14.70;;;7.73;;
11131;SDS011;5620;53.570;9.718;2022-08-19T03:37:04;17.10;;;7.65;;
11131;SDS011;5620;53.570;9.718;2022-08-19T03:39:33;15.25;;;7.65;;
11131;SDS011;5620;53.570;9.718;2022-08-19T03:42:00;10.65;;;7.22;;
11131;SDS011;5620;53.570;9.718;2022-08-19T03:44:26;9.13;;;6.77;;
11131;SDS011;5620;53.570;9.718;2022-08-19T03:46:53;14.33;;;7.77;;
11131;SDS011;5620;53.570;9.718;2022-08-19T03:49:22;14.00;;;7.20;;
11131;SDS011;5620;53.570;9.718;2022-08-19T03:51:49;12.95;;;7.50;;
11131;SDS011;5620;53.570;9.718;2022-08-19T03:54:17;14.80;;;7.30;;
11131;SDS011;5620;53.570;9.718;2022-08-19T03:56:45;15.30;;;6.87;;
11131;SDS011;5620;53.570;9.718;2022-08-19T03:59:14;10.88;;;7.60;;
11131;SDS011;5620;53.570;9.718;2022-08-19T04:01:42;16.70;;;7.47;;
11131;SDS011;5620;53.570;9.718;2022-08-19T04:04:08;13.10;;;7.32;;
11131;SDS011;5620;53.570;9.718;2022-08-19T04:06:35;19.08;;;8.57;;
11131;SDS011;5620;53.570;9.718;2022-08-19T04:09:03;19.57;;;8.23;;
11131;SDS011;5620;53.570;9.718;2022-08-19T04:11:31;12.48;;;7.25;;
11131;SDS011;5620;53.570;9.718;2022-08-19T04:14:02;8.75;;;7.22;;
11131;SDS011;5620;53.570;9.718;2022-08-19T04:16:28;15.40;;;7.03;;
11131;SDS011;5620;53.570;9.718;2022-08-19T04:18:54;14.07;;;7.47;;
11131;SDS011;5620;53.570;9.718;2022-08-19T04:21:22;13.45;;;7.15;;
11131;SDS011;5620;53.570;9.718;2022-08-19T04:23:50;9.70;;;6.93;;
11131;SDS011;5620;53.570;9.718;2022-08-19T04:26:20;15.90;;;6.78;;
11131;SDS011;5620;53.570;9.718;2022-08-19T04:28:51;10.38;;;5.70;;
11131;SDS011;5620;53.570;9.718;2022-08-19T04:31:19;11.40;;;5.65;;
11131;SDS011;5620;53.570;9.718;2022-08-19T04:33:49;8.00;;;5.82;;
11131;SDS011;5620;53.570;9.718;2022-08-19T04:36:23;10.10;;;5.80;;
11131;SDS011;5620;53.570;9.718;2022-08-19T04:38:52;8.88;;;5.85;;
11131;SDS011;5620;53.570;9.718;2022-08-19T04:41:20;35.67;;;21.73;;
11131;SDS011;5620;53.570;9.718;2022-08-19T04:43:46;12.63;;;7.67;;
11131;SDS011;5620;53.570;9.718;2022-08-19T04:46:12;13.15;;;6.10;;
11131;SDS011;5620;53.570;9.718;2022-08-19T04:48:38;7.17;;;4.30;;
11131;SDS011;5620;53.570;9.718;2022-08-19T04:51:08;6.40;;;4.72;;
11131;SDS011;5620;53.570;9.718;2022-08-19T04:53:36;8.02;;;4.32;;
11131;SDS011;5620;53.570;9.718;2022-08-19T04:56:13;9.02;;;5.18;;
11131;SDS011;5620;53.570;9.718;2022-08-19T04:58:41;9.07;;;4.10;;
11131;SDS011;5620;53.570;9.718;2022-08-19T05:01:08;9.35;;;5.38;;
11131;SDS011;5620;53.570;9.718;2022-08-19T05:03:37;7.15;;;5.70;;
11131;SDS011;5620;53.570;9.718;2022-08-19T05:06:05;32.43;;;17.93;;
11131;SDS011;5620;53.570;9.718;2022-08-19T05:08:32;9.40;;;4.60;;
11131;SDS011;5620;53.570;9.718;2022-08-19T05:10:59;7.07;;;5.70;;
11131;SDS011;5620;53.570;9.718;2022-08-19T05:13:25;7.90;;;5.40;;
11131;SDS011;5620;53.570;9.718;2022-08-19T05:15:55;10.50;;;5.20;;
11131;SDS011;5620;53.570;9.718;2022-08-19T05:18:22;8.23;;;5.05;;
11131;SDS011;5620;53.570;9.718;2022-08-19T05:20:48;7.75;;;4.00;;
11131;SDS011;5620;53.570;9.718;2022-08-19T05:23:13;11.63;;;4.67;;
11131;SDS011;5620;53.570;9.718;2022-08-19T05:25:39;7.70;;;4.73;;
11131;SDS011;5620;53.570;9.718;2022-08-19T05:28:05;5.60;;;4.03;;
11131;SDS011;5620;53.570;9.718;2022-08-19T05:30:31;35.27;;;16.13;;
11131;SDS011;5620;53.570;9.718;2022-08-19T05:32:56;26.30;;;17.73;;
11131;SDS011;5620;53.570;9.718;2022-08-19T05:35:22;8.23;;;5.00;;
11131;SDS011;5620;53.570;9.718;2022-08-19T05:37:47;12.33;;;4.07;;
11131;SDS011;5620;53.570;9.718;2022-08-19T05:40:13;14.00;;;4.60;;
11131;SDS011;5620;53.570;9.718;2022-08-19T05:42:38;13.93;;;3.43;;
11131;SDS011;5620;53.570;9.718;2022-08-19T05:45:04;4.13;;;3.60;;
11131;SDS011;5620;53.570;9.718;2022-08-19T05:47:30;4.50;;;3.88;;
11131;SDS011;5620;53.570;9.718;2022-08-19T05:49:55;5.80;;;3.87;;
11131;SDS011;5620;53.570;9.718;2022-08-19T05:52:21;3.80;;;3.25;;
11131;SDS011;5620;53.570;9.718;2022-08-19T05:54:46;6.57;;;3.37;;
11131;SDS011;5620;53.570;9.718;2022-08-19T05:57:12;5.73;;;2.77;;
11131;SDS011;5620;53.570;9.718;2022-08-19T05:59:38;8.10;;;3.63;;
11131;SDS011;5620;53.570;9.718;2022-08-19T06:02:04;6.67;;;3.43;;
11131;SDS011;5620;53.570;9.718;2022-08-19T06:04:31;4.68;;;2.92;;
11131;SDS011;5620;53.570;9.718;2022-08-19T06:06:56;4.72;;;4.00;;
11131;SDS011;5620;53.570;9.718;2022-08-19T06:09:22;6.20;;;2.60;;
11131;SDS011;5620;53.570;9.718;2022-08-19T06:11:49;3.97;;;3.03;;
11131;SDS011;5620;53.570;9.718;2022-08-19T06:14:17;10.77;;;7.40;;
11131;SDS011;5620;53.570;9.718;2022-08-19T06:16:45;9.20;;;3.50;;
11131;SDS011;5620;53.570;9.718;2022-08-19T06:19:14;8.82;;;4.53;;
11131;SDS011;5620;53.570;9.718;2022-08-19T06:21:42;7.90;;;4.20;;
11131;SDS011;5620;53.570;9.718;2022-08-19T06:24:10;4.60;;;3.00;;
11131;SDS011;5620;53.570;9.718;2022-08-19T06:26:38;4.53;;;3.20;;
11131;SDS011;5620;53.570;9.718;2022-08-19T06:29:05;4.25;;;3.05;;
11131;SDS011;5620;53.570;9.718;2022-08-19T06:31:33;9.70;;;2.95;;
11131;SDS011;5620;53.570;9.718;2022-08-19T06:34:00;2.85;;;2.55;;
11131;SDS011;5620;53.570;9.718;2022-08-19T06:36:27;3.37;;;2.33;;
11131;SDS011;5620;53.570;9.718;2022-08-19T06:38:55;4.22;;;3.28;;
11131;SDS011;5620;53.570;9.718;2022-08-19T06:41:21;4.20;;;2.60;;
11131;SDS011;5620;53.570;9.718;2022-08-19T06:43:46;7.50;;;2.57;;
11131;SDS011;5620;53.570;9.718;2022-08-19T06:46:13;3.03;;;2.83;;
11131;SDS011;5620;53.570;9.718;2022-08-19T06:48:40;3.58;;;2.67;;
11131;SDS011;5620;53.570;9.718;2022-08-19T06:51:06;8.40;;;4.80;;
11131;SDS011;5620;53.570;9.718;2022-08-19T06:53:32;5.47;;;4.60;;
11131;SDS011;5620;53.570;9.718;2022-08-19T06:55:58;4.13;;;3.27;;
11131;SDS011;5620;53.570;9.718;2022-08-19T06:58:23;7.25;;;4.32;;
11131;SDS011;5620;53.570;9.718;2022-08-19T07:00:49;2.67;;;2.30;;
11131;SDS011;5620;53.570;9.718;2022-08-19T07:03:14;2.50;;;2.30;;
11131;SDS011;5620;53.570;9.718;2022-08-19T07:05:40;3.33;;;2.78;;
11131;SDS011;5620;53.570;9.718;2022-08-19T07:08:06;5.03;;;2.30;;
11131;SDS011;5620;53.570;9.718;2022-08-19T07:10:32;3.20;;;2.47;;
11131;SDS011;5620;53.570;9.718;2022-08-19T07:12:57;4.03;;;2.73;;
11131;SDS011;5620;53.570;9.718;2022-08-19T07:15:23;3.40;;;3.07;;
11131;SDS011;5620;53.570;9.718;2022-08-19T07:17:48;4.88;;;3.38;;
11131;SDS011;5620;53.570;9.718;2022-08-19T07:20:14;5.67;;;3.10;;
11131;SDS011;5620;53.570;9.718;2022-08-19T07:22:39;4.53;;;3.73;;
11131;SDS011;5620;53.570;9.718;2022-08-19T07:25:06;7.28;;;3.88;;
11131;SDS011;5620;53.570;9.718;2022-08-19T07:27:33;10.30;;;3.70;;
11131;SDS011;5620;53.570;9.718;2022-08-19T07:29:59;4.53;;;3.92;;
11131;SDS011;5620;53.570;9.718;2022-08-19T07:32:25;5.47;;;3.47;;
11131;SDS011;5620;53.570;9.718;2022-08-19T07:34:50;8.63;;;4.63;;
11131;SDS011;5620;53.570;9.718;2022-08-19T07:37:16;8.17;;;5.00;;
11131;SDS011;5620;53.570;9.718;2022-08-19T07:39:41;7.15;;;5.45;;
11131;SDS011;5620;53.570;9.718;2022-08-19T07:42:08;9.47;;;4.43;;
11131;SDS011;5620;53.570;9.718;2022-08-19T07:44:35;10.70;;;4.60;;
11131;SDS011;5620;53.570;9.718;2022-08-19T07:47:02;7.07;;;4.28;;
11131;SDS011;5620;53.570;9.718;2022-08-19T07:49:29;7.23;;;4.63;;
11131;SDS011;5620;53.570;9.718;2022-08-19T07:51:57;5.93;;;4.03;;
11131;SDS011;5620;53.570;9.718;2022-08-19T07:54:25;12.38;;;4.07;;
11131;SDS011;5620;53.570;9.718;2022-08-19T07:56:52;8.45;;;3.90;;
11131;SDS011;5620;53.570;9.718;2022-08-19T07:59:18;7.37;;;4.20;;
11131;SDS011;5620;53.570;9.718;2022-08-19T08:01:45;7.45;;;4.28;;
11131;SDS011;5620;53.570;9.718;2022-08-19T08:04:11;5.35;;;4.22;;
11131;SDS011;5620;53.570;9.718;2022-08-19T08:06:37;7.03;;;4.80;;
11131;SDS011;5620;53.570;9.718;2022-08-19T08:09:04;7.47;;;4.10;;
11131;SDS011;5620;53.570;9.718;2022-08-19T08:11:30;6.22;;;4.25;;
11131;SDS011;5620;53.570;9.718;2022-08-19T08:13:55;6.53;;;4.93;;
11131;SDS011;5620;53.570;9.718;2022-08-19T08:16:21;9.47;;;4.47;;
11131;SDS011;5620;53.570;9.718;2022-08-19T08:18:46;6.22;;;3.85;;
11131;SDS011;5620;53.570;9.718;2022-08-19T08:21:12;12.83;;;4.70;;
11131;SDS011;5620;53.570;9.718;2022-08-19T08:23:37;5.37;;;4.10;;
11131;SDS011;5620;53.570;9.718;2022-08-19T08:26:03;11.85;;;4.30;;
11131;SDS011;5620;53.570;9.718;2022-08-19T08:28:28;6.40;;;3.80;;
11131;SDS011;5620;53.570;9.718;2022-08-19T08:30:54;9.87;;;4.40;;
11131;SDS011;5620;53.570;9.718;2022-08-19T08:33:20;7.97;;;4.22;;
11131;SDS011;5620;53.570;9.718;2022-08-19T08:35:47;9.80;;;4.70;;
11131;SDS011;5620;53.570;9.718;2022-08-19T08:38:13;5.60;;;4.20;;
11131;SDS011;5620;53.570;9.718;2022-08-19T08:45:47;6.32;;;4.00;;
11131;SDS011;5620;53.570;9.718;2022-08-19T08:48:22;10.50;;;4.32;;
11131;SDS011;5620;53.570;9.718;2022-08-19T08:50:55;6.95;;;3.88;;
11131;SDS011;5620;53.570;9.718;2022-08-19T08:53:22;7.07;;;5.18;;
11131;SDS011;5620;53.570;9.718;2022-08-19T08:55:49;7.50;;;4.73;;
11131;SDS011;5620;53.570;9.718;2022-08-19T08:58:17;5.57;;;4.78;;
11131;SDS011;5620;53.570;9.718;2022-08-19T09:00:50;5.95;;;4.80;;
11131;SDS011;5620;53.570;9.718;2022-08-19T09:03:20;4.53;;;4.13;;
11131;SDS011;5620;53.570;9.718;2022-08-19T09:11:19;5.40;;;5.00;;
11131;SDS011;5620;53.570;9.718;2022-08-19T09:14:18;8.02;;;4.65;;
11131;SDS011;5620;53.570;9.718;2022-08-19T09:17:03;5.68;;;4.50;;
11131;SDS011;5620;53.570;9.718;2022-08-19T09:19:29;6.60;;;4.03;;
11131;SDS011;5620;53.570;9.718;2022-08-19T09:21:55;12.73;;;4.50;;
11131;SDS011;5620;53.570;9.718;2022-08-19T09:24:21;12.38;;;5.45;;
11131;SDS011;5620;53.570;9.718;2022-08-19T09:26:46;7.60;;;4.73;;
11131;SDS011;5620;53.570;9.718;2022-08-19T09:29:12;13.17;;;5.53;;
11131;SDS011;5620;53.570;9.718;2022-08-19T09:31:38;8.00;;;5.03;;
11131;SDS011;5620;53.570;9.718;2022-08-19T09:34:04;9.00;;;5.22;;
11131;SDS011;5620;53.570;9.718;2022-08-19T09:36:29;13.00;;;6.13;;
11131;SDS011;5620;53.570;9.718;2022-08-19T09:38:55;8.77;;;5.93;;
11131;SDS011;5620;53.570;9.718;2022-08-19T09:41:22;14.00;;;8.93;;
11131;SDS011;5620;53.570;9.718;2022-08-19T09:43:49;7.32;;;6.35;;
11131;SDS011;5620;53.570;9.718;2022-08-19T09:46:16;10.35;;;6.13;;
11131;SDS011;5620;53.570;9.718;2022-08-19T09:48:42;10.93;;;6.30;;
11131;SDS011;5620;53.570;9.718;2022-08-19T09:51:09;9.20;;;6.60;;
11131;SDS011;5620;53.570;9.718;2022-08-19T09:53:39;10.05;;;6.22;;
11131;SDS011;5620;53.570;9.718;2022-08-19T09:56:04;7.27;;;6.13;;
11131;SDS011;5620;53.570;9.718;2022-08-19T09:58:31;9.00;;;6.05;;
11131;SDS011;5620;53.570;9.718;2022-08-19T10:00:58;12.10;;;6.72;;
11131;SDS011;5620;53.570;9.718;2022-08-19T10:03:24;11.60;;;6.33;;
11131;SDS011;5620;53.570;9.718;2022-08-19T10:05:51;6.30;;;5.65;;
11131;SDS011;5620;53.570;9.718;2022-08-19T10:08:19;8.07;;;7.13;;
11131;SDS011;5620;53.570;9.718;2022-08-19T10:10:50;11.10;;;5.53;;
11131;SDS011;5620;53.570;9.718;2022-08-19T10:13:16;10.17;;;7.80;;
11131;SDS011;5620;53.570;9.718;2022-08-19T10:15:43;8.35;;;6.97;;
11131;SDS011;5620;53.570;9.718;2022-08-19T10:18:09;10.83;;;7.13;;
11131;SDS011;5620;53.570;9.718;2022-08-19T10:20:35;11.30;;;7.00;;
11131;SDS011;5620;53.570;9.718;2022-08-19T10:23:00;8.80;;;6.73;;
11131;SDS011;5620;53.570;9.718;2022-08-19T10:25:27;14.55;;;10.95;;
11131;SDS011;5620;53.570;9.718;2022-08-19T10:27:52;20.50;;;12.93;;
11131;SDS011;5620;53.570;9.718;2022-08-19T10:30:18;13.65;;;8.15;;
11131;SDS011;5620;53.570;9.718;2022-08-19T10:32:44;7.10;;;6.40;;
11131;SDS011;5620;53.570;9.718;2022-08-19T10:35:10;9.90;;;6.30;;
11131;SDS011;5620;53.570;9.718;2022-08-19T10:37:36;13.13;;;7.50;;
11131;SDS011;5620;53.570;9.718;2022-08-19T10:40:03;10.65;;;6.10;;
11131;SDS011;5620;53.570;9.718;2022-08-19T10:42:33;14.52;;;7.90;;
11131;SDS011;5620;53.570;9.718;2022-08-19T10:44:59;9.00;;;6.78;;
11131;SDS011;5620;53.570;9.718;2022-08-19T10:47:25;19.87;;;13.73;;
11131;SDS011;5620;53.570;9.718;2022-08-19T10:49:51;33.10;;;23.92;;
11131;SDS011;5620;53.570;9.718;2022-08-19T10:52:17;16.77;;;12.23;;
11131;SDS011;5620;53.570;9.718;2022-08-19T10:54:43;11.43;;;7.57;;
11131;SDS011;5620;53.570;9.718;2022-08-19T10:57:08;17.53;;;7.93;;
11131;SDS011;5620;53.570;9.718;2022-08-19T10:59:34;12.53;;;8.13;;
11131;SDS011;5620;53.570;9.718;2022-08-19T11:02:00;9.25;;;8.00;;
11131;SDS011;5620;53.570;9.718;2022-08-19T11:04:27;12.57;;;8.10;;
11131;SDS011;5620;53.570;9.718;2022-08-19T11:06:52;12.53;;;7.03;;
11131;SDS011;5620;53.570;9.718;2022-08-19T11:09:19;13.47;;;8.37;;
11131;SDS011;5620;53.570;9.718;2022-08-19T11:11:46;11.88;;;7.55;;
11131;SDS011;5620;53.570;9.718;2022-08-19T11:14:12;10.23;;;8.00;;
11131;SDS011;5620;53.570;9.718;2022-08-19T11:16:41;10.55;;;8.88;;
11131;SDS011;5620;53.570;9.718;2022-08-19T11:19:08;10.43;;;8.50;;
11131;SDS011;5620;53.570;9.718;2022-08-19T11:21:36;9.10;;;7.82;;
11131;SDS011;5620;53.570;9.718;2022-08-19T11:24:09;12.32;;;8.98;;
11131;SDS011;5620;53.570;9.718;2022-08-19T11:26:36;12.87;;;8.33;;
11131;SDS011;5620;53.570;9.718;2022-08-19T11:29:04;9.75;;;8.45;;
11131;SDS011;5620;53.570;9.718;2022-08-19T11:31:31;8.02;;;7.43;;
11131;SDS011;5620;53.570;9.718;2022-08-19T11:33:59;9.93;;;8.45;;
11131;SDS011;5620;53.570;9.718;2022-08-19T11:36:26;9.57;;;8.38;;
11131;SDS011;5620;53.570;9.718;2022-08-19T11:38:52;8.50;;;7.70;;
11131;SDS011;5620;53.570;9.718;2022-08-19T11:41:19;12.40;;;9.95;;
11131;SDS011;5620;53.570;9.718;2022-08-19T11:43:46;14.05;;;12.15;;
11131;SDS011;5620;53.570;9.718;2022-08-19T11:46:13;9.77;;;8.73;;
11131;SDS011;5620;53.570;9.718;2022-08-19T11:48:40;9.47;;;8.43;;
11131;SDS011;5620;53.570;9.718;2022-08-19T11:51:07;8.88;;;8.07;;
11131;SDS011;5620;53.570;9.718;2022-08-19T11:53:35;10.95;;;8.00;;
11131;SDS011;5620;53.570;9.718;2022-08-19T11:56:01;8.82;;;7.90;;
11131;SDS011;5620;53.570;9.718;2022-08-19T11:58:28;9.45;;;8.63;;
11131;SDS011;5620;53.570;9.718;2022-08-19T12:00:54;8.77;;;8.07;;
11131;SDS011;5620;53.570;9.718;2022-08-19T12:03:19;9.10;;;8.38;;
11131;SDS011;5620;53.570;9.718;2022-08-19T12:05:45;8.90;;;8.13;;
11131;SDS011;5620;53.570;9.718;2022-08-19T12:08:11;8.33;;;7.30;;
11131;SDS011;5620;53.570;9.718;2022-08-19T12:10:38;8.70;;;7.82;;
11131;SDS011;5620;53.570;9.718;2022-08-19T12:13:04;7.07;;;6.43;;
11131;SDS011;5620;53.570;9.718;2022-08-19T12:15:30;7.53;;;7.00;;
11131;SDS011;5620;53.570;9.718;2022-08-19T12:18:04;7.00;;;6.40;;
11131;SDS011;5620;53.570;9.718;2022-08-19T12:20:30;7.20;;;6.53;;
11131;SDS011;5620;53.570;9.718;2022-08-19T12:22:55;7.07;;;6.13;;
11131;SDS011;5620;53.570;9.718;2022-08-19T12:25:21;7.20;;;6.47;;
11131;SDS011;5620;53.570;9.718;2022-08-19T12:27:46;7.53;;;6.93;;
11131;SDS011;5620;53.570;9.718;2022-08-19T12:30:12;7.28;;;6.68;;
11131;SDS011;5620;53.570;9.718;2022-08-19T12:32:38;6.80;;;6.30;;
11131;SDS011;5620;53.570;9.718;2022-08-19T12:35:05;6.35;;;5.88;;
11131;SDS011;5620;53.570;9.718;2022-08-19T12:37:31;6.53;;;5.93;;
11131;SDS011;5620;53.570;9.718;2022-08-19T12:39:57;6.18;;;5.75;;
11131;SDS011;5620;53.570;9.718;2022-08-19T12:42:23;9.73;;;8.88;;
11131;SDS011;5620;53.570;9.718;2022-08-19T12:44:48;8.80;;;7.87;;
11131;SDS011;5620;53.570;9.718;2022-08-19T12:47:14;6.93;;;6.22;;
11131;SDS011;5620;53.570;9.718;2022-08-19T12:49:40;6.10;;;5.53;;
11131;SDS011;5620;53.570;9.718;2022-08-19T12:52:06;9.65;;;5.78;;
11131;SDS011;5620;53.570;9.718;2022-08-19T12:54:34;6.30;;;5.90;;
11131;SDS011;5620;53.570;9.718;2022-08-19T12:57:00;5.77;;;5.27;;
11131;SDS011;5620;53.570;9.718;2022-08-19T12:59:30;8.00;;;7.38;;
11131;SDS011;5620;53.570;9.718;2022-08-19T13:01:56;5.53;;;5.03;;
11131;SDS011;5620;53.570;9.718;2022-08-19T13:04:21;10.82;;;5.93;;
11131;SDS011;5620;53.570;9.718;2022-08-19T13:06:47;11.93;;;10.73;;
11131;SDS011;5620;53.570;9.718;2022-08-19T13:09:12;7.30;;;6.33;;
11131;SDS011;5620;53.570;9.718;2022-08-19T13:11:38;7.35;;;6.75;;
11131;SDS011;5620;53.570;9.718;2022-08-19T13:14:03;5.83;;;5.33;;
11131;SDS011;5620;53.570;9.718;2022-08-19T13:16:29;5.43;;;5.03;;
11131;SDS011;5620;53.570;9.718;2022-08-19T13:18:55;8.27;;;7.47;;
11131;SDS011;5620;53.570;9.718;2022-08-19T13:21:23;15.65;;;14.05;;
11131;SDS011;5620;53.570;9.718;2022-08-19T13:23:50;7.57;;;5.10;;
11131;SDS011;5620;53.570;9.718;2022-08-19T13:26:16;6.07;;;5.57;;
11131;SDS011;5620;53.570;9.718;2022-08-19T13:28:43;6.13;;;5.60;;
11131;SDS011;5620;53.570;9.718;2022-08-19T13:31:09;5.43;;;4.93;;
11131;SDS011;5620;53.570;9.718;2022-08-19T13:33:34;5.43;;;4.93;;
11131;SDS011;5620;53.570;9.718;2022-08-19T13:36:00;4.87;;;4.57;;
11131;SDS011;5620;53.570;9.718;2022-08-19T13:38:26;5.60;;;5.20;;
11131;SDS011;5620;53.570;9.718;2022-08-19T13:40:53;4.95;;;4.55;;
11131;SDS011;5620;53.570;9.718;2022-08-19T13:43:20;6.23;;;5.70;;
11131;SDS011;5620;53.570;9.718;2022-08-19T13:45:47;5.28;;;4.95;;
11131;SDS011;5620;53.570;9.718;2022-08-19T13:48:14;4.90;;;4.50;;
11131;SDS011;5620;53.570;9.718;2022-08-19T13:50:41;5.90;;;5.40;;
11131;SDS011;5620;53.570;9.718;2022-08-19T13:53:09;5.50;;;5.03;;
11131;SDS011;5620;53.570;9.718;2022-08-19T13:55:39;5.13;;;4.57;;
11131;SDS011;5620;53.570;9.718;2022-08-19T13:58:05;4.88;;;4.53;;
11131;SDS011;5620;53.570;9.718;2022-08-19T14:00:32;4.68;;;4.28;;
11131;SDS011;5620;53.570;9.718;2022-08-19T14:02:59;3.60;;;3.30;;
11131;SDS011;5620;53.570;9.718;2022-08-19T14:05:26;3.77;;;3.50;;
11131;SDS011;5620;53.570;9.718;2022-08-19T14:07:52;4.13;;;3.83;;
11131;SDS011;5620;53.570;9.718;2022-08-19T14:10:19;4.40;;;4.10;;
11131;SDS011;5620;53.570;9.718;2022-08-19T14:12:45;8.05;;;4.10;;
11131;SDS011;5620;53.570;9.718;2022-08-19T14:15:11;2.90;;;2.70;;
11131;SDS011;5620;53.570;9.718;2022-08-19T14:17:38;2.45;;;2.35;;
11131;SDS011;5620;53.570;9.718;2022-08-19T14:20:05;2.42;;;1.90;;
11131;SDS011;5620;53.570;9.718;2022-08-19T14:22:33;2.40;;;2.20;;
11131;SDS011;5620;53.570;9.718;2022-08-19T14:25:04;3.42;;;2.15;;
11131;SDS011;5620;53.570;9.718;2022-08-19T14:27:35;2.53;;;2.33;;
11131;SDS011;5620;53.570;9.718;2022-08-19T14:30:02;2.65;;;2.45;;
11131;SDS011;5620;53.570;9.718;2022-08-19T14:32:29;3.25;;;2.40;;
11131;SDS011;5620;53.570;9.718;2022-08-19T14:34:54;2.70;;;2.50;;
11131;SDS011;5620;53.570;9.718;2022-08-19T14:37:20;2.53;;;2.17;;
11131;SDS011;5620;53.570;9.718;2022-08-19T14:39:46;2.20;;;2.10;;
11131;SDS011;5620;53.570;9.718;2022-08-19T14:42:12;2.75;;;2.35;;
11131;SDS011;5620;53.570;9.718;2022-08-19T14:44:41;3.58;;;2.20;;
11131;SDS011;5620;53.570;9.718;2022-08-19T14:47:06;2.80;;;2.60;;
11131;SDS011;5620;53.570;9.718;2022-08-19T14:49:33;3.05;;;2.63;;
11131;SDS011;5620;53.570;9.718;2022-08-19T14:51:59;2.90;;;2.60;;
11131;SDS011;5620;53.570;9.718;2022-08-19T14:54:24;4.17;;;3.70;;
11131;SDS011;5620;53.570;9.718;2022-08-19T14:56:50;4.65;;;3.55;;
11131;SDS011;5620;53.570;9.718;2022-08-19T14:59:16;3.20;;;2.90;;
11131;SDS011;5620;53.570;9.718;2022-08-19T15:01:42;2.90;;;2.40;;
11131;SDS011;5620;53.570;9.718;2022-08-19T15:04:08;2.60;;;2.40;;